Time;durP1;ratioP1;P1;durP2;ratioP2;P2;SDS_P1;SDS_P2;PMS_P1;PMS_P2;Temp;Humidity;BMP_temperature;BMP_pressure;BME280_temperature;BME280_humidity;BME280_pressure;Samples;Min_cycle;Max_cycle;Signal;HPM_P1;HPM_P2
2021/06/17 05:12:51;;;;;;;9.25;4.37;;;;;;;15.31;75.53;98496.84;1827856;78;21249;-64
2021/06/17 05:15:19;;;;;;;9.78;4.70;;;;;;;15.53;73.35;98500.32;1827903;78;20865;-63
2021/06/17 05:17:47;;;;;;;6.62;4.22;;;;;;;15.83;72.81;98510.08;1827839;78;20868;-63
2021/06/17 05:20:14;;;;;;;6.85;3.90;;;;;;;16.11;71.59;98509.53;1827722;78;20896;-64
2021/06/17 05:22:43;;;;;;;8.08;4.40;;;;;;;16.39;69.75;98517.63;1828065;78;21505;-63
2021/06/17 05:25:11;;;;;;;8.90;3.77;;;;;;;16.61;68.54;98508.64;1827713;78;21248;-64
2021/06/17 05:27:38;;;;;;;4.50;3.42;;;;;;;16.79;67.46;98510.23;1828078;78;21348;-61
2021/06/17 05:30:07;;;;;;;9.35;3.50;;;;;;;16.94;66.20;98506.26;1827818;78;20821;-64
2021/06/17 05:32:34;;;;;;;8.50;3.58;;;;;;;17.06;65.12;98507.77;1827692;78;21416;-64
2021/06/17 05:35:00;;;;;;;8.78;3.90;;;;;;;17.19;64.63;98512.23;1827832;78;20967;-65
2021/06/17 05:37:28;;;;;;;11.03;4.10;;;;;;;17.29;63.62;98502.98;1828052;78;21826;-64
2021/06/17 05:39:54;;;;;;;7.58;3.70;;;;;;;17.38;63.08;98503.18;1827763;78;20884;-65
2021/06/17 05:42:22;;;;;;;11.40;4.30;;;;;;;17.48;63.03;98504.20;1827683;78;20908;-62
2021/06/17 05:44:52;;;;;;;7.17;3.67;;;;;;;17.57;62.84;98505.58;1827803;78;20986;-65
2021/06/17 05:47:17;;;;;;;11.05;3.70;;;;;;;17.66;62.71;98504.41;1827809;78;21368;-65
2021/06/17 05:49:44;;;;;;;6.87;3.67;;;;;;;17.78;62.93;98512.44;1827690;78;21109;-61
2021/06/17 05:52:11;;;;;;;6.83;3.70;;;;;;;17.87;62.83;98514.55;1828020;78;20955;-63
2021/06/17 05:54:38;;;;;;;10.90;4.53;;;;;;;17.98;62.41;98517.13;1827776;78;20872;-63
2021/06/17 05:57:06;;;;;;;9.78;4.58;;;;;;;18.08;62.50;98517.58;1827715;78;20872;-67
2021/06/17 05:59:33;;;;;;;10.55;4.25;;;;;;;18.16;62.08;98507.23;1825882;78;21058;-63
2021/06/17 06:02:05;;;;;;;9.10;5.00;;;;;;;18.26;62.08;98514.20;1826331;78;21117;-65
2021/06/17 06:04:33;;;;;;;13.03;5.65;;;;;;;18.35;62.10;98516.30;1834297;78;21411;-62
2021/06/17 06:07:01;;;;;;;11.38;5.45;;;;;;;18.44;61.74;98508.94;1819773;78;20877;-62
2021/06/17 06:09:29;;;;;;;10.32;5.30;;;;;;;18.50;61.19;98502.21;1816496;79;20920;-63
2021/06/17 06:11:58;;;;;;;8.30;5.92;;;;;;;18.52;60.25;98501.31;1816487;78;20900;-66
2021/06/17 06:14:25;;;;;;;11.80;5.90;;;;;;;18.56;60.83;98502.23;1815077;78;21065;-65
2021/06/17 06:16:53;;;;;;;14.55;5.92;;;;;;;18.60;60.84;98507.81;1816184;79;20940;-64
2021/06/17 06:19:20;;;;;;;9.10;5.10;;;;;;;18.66;61.09;98516.78;1814935;79;21620;-65
2021/06/17 06:21:47;;;;;;;20.35;5.75;;;;;;;18.73;61.17;98511.62;1814316;78;21049;-68
2021/06/17 06:24:14;;;;;;;12.20;5.22;;;;;;;18.79;61.50;98514.38;1814377;79;21058;-63
2021/06/17 06:26:40;;;;;;;9.98;4.90;;;;;;;18.86;61.65;98513.30;1817817;78;21095;-64
2021/06/17 06:29:07;;;;;;;11.60;5.40;;;;;;;18.92;61.42;98519.30;1837350;78;21042;-63
2021/06/17 06:31:34;;;;;;;14.95;5.25;;;;;;;18.93;61.06;98516.27;1840170;78;20966;-64
2021/06/17 06:34:01;;;;;;;9.70;4.75;;;;;;;18.98;61.66;98525.55;1841102;77;20955;-67
2021/06/17 06:36:29;;;;;;;11.12;5.03;;;;;;;19.05;61.51;98520.38;1840824;78;20829;-67
2021/06/17 06:38:56;;;;;;;10.20;4.83;;;;;;;19.09;61.17;98510.46;1825565;77;21100;-61
2021/06/17 06:41:23;;;;;;;9.88;4.83;;;;;;;19.12;61.38;98516.56;1824099;77;21509;-68
2021/06/17 06:43:50;;;;;;;10.98;5.20;;;;;;;19.18;61.65;98515.80;1822807;77;20970;-65
2021/06/17 06:46:17;;;;;;;8.70;4.80;;;;;;;19.26;61.79;98520.93;1807408;77;20990;-63
2021/06/17 06:48:44;;;;;;;17.25;5.10;;;;;;;19.34;61.92;98514.05;1798298;78;21054;-63
2021/06/17 06:51:11;;;;;;;21.33;5.65;;;;;;;19.45;62.03;98518.54;1794189;80;21253;-65
2021/06/17 06:53:39;;;;;;;13.58;5.33;;;;;;;19.57;61.97;98521.30;1793733;80;21104;-68
2021/06/17 06:56:05;;;;;;;20.45;5.58;;;;;;;19.67;61.42;98520.28;1793775;80;21057;-65
2021/06/17 06:58:32;;;;;;;21.95;5.97;;;;;;;19.78;61.49;98527.45;1793664;80;21094;-67
2021/06/17 07:00:59;;;;;;;10.82;5.10;;;;;;;19.84;61.06;98531.53;1793753;80;21556;-66
2021/06/17 07:03:25;;;;;;;15.55;6.25;;;;;;;19.89;61.49;98530.52;1791012;78;21087;-68
2021/06/17 07:05:52;;;;;;;17.35;5.10;;;;;;;19.97;61.51;98536.43;1814484;78;21067;-66
2021/06/17 07:08:19;;;;;;;25.27;5.83;;;;;;;20.06;61.84;98543.35;1815854;78;20905;-65
2021/06/17 07:10:48;;;;;;;20.60;5.12;;;;;;;20.13;61.72;98535.42;1789812;79;21424;-66
2021/06/17 07:13:15;;;;;;;13.20;4.60;;;;;;;20.21;61.53;98535.86;1814823;79;21647;-68
2021/06/17 07:15:44;;;;;;;14.55;5.28;;;;;;;20.31;61.27;98538.17;1808615;78;20916;-66
2021/06/17 07:18:10;;;;;;;11.63;4.67;;;;;;;20.42;61.18;98539.85;1815739;79;20956;-66
2021/06/17 07:20:37;;;;;;;20.85;5.47;;;;;;;20.48;61.07;98526.82;1815717;79;20864;-65
2021/06/17 07:23:04;;;;;;;12.93;4.90;;;;;;;20.57;61.19;98532.93;1796299;78;21024;-66
2021/06/17 07:25:32;;;;;;;14.47;6.15;;;;;;;20.65;60.91;98534.75;1783702;80;20892;-69
2021/06/17 07:27:59;;;;;;;14.40;5.20;;;;;;;20.75;60.67;98532.33;1783806;79;21108;-64
2021/06/17 07:30:26;;;;;;;13.90;4.15;;;;;;;20.84;60.38;98535.73;1783583;80;20833;-69
2021/06/17 07:32:53;;;;;;;10.13;4.80;;;;;;;20.93;60.17;98531.51;1783802;79;21039;-67
2021/06/17 07:35:20;;;;;;;12.63;4.45;;;;;;;21.01;59.86;98524.55;1783525;79;20975;-66
2021/06/17 07:37:47;;;;;;;7.92;3.92;;;;;;;21.08;59.14;98518.54;1783778;79;20904;-66
2021/06/17 07:40:15;;;;;;;11.30;4.90;;;;;;;21.16;59.14;98514.89;1783604;80;21013;-64
2021/06/17 07:42:41;;;;;;;15.48;4.47;;;;;;;21.22;59.06;98524.39;1783560;79;20936;-65
2021/06/17 07:45:09;;;;;;;13.30;4.55;;;;;;;21.28;58.64;98527.10;1783928;79;21320;-63
2021/06/17 07:47:36;;;;;;;18.73;4.80;;;;;;;21.34;59.58;98534.47;1783625;79;21419;-65
2021/06/17 07:50:05;;;;;;;24.52;6.80;;;;;;;21.45;59.16;98533.62;1783745;80;20987;-62
2021/06/17 07:52:32;;;;;;;18.62;4.62;;;;;;;21.55;58.71;98537.18;1783798;79;21069;-65
2021/06/17 07:54:59;;;;;;;8.65;4.42;;;;;;;21.65;58.52;98532.59;1783634;80;20872;-62
2021/06/17 07:57:26;;;;;;;12.58;4.40;;;;;;;21.73;58.03;98526.20;1783644;80;20931;-62
2021/06/17 07:59:52;;;;;;;8.83;3.77;;;;;;;21.84;58.32;98522.39;1783527;80;21016;-67
2021/06/17 08:02:19;;;;;;;9.00;4.10;;;;;;;21.92;58.27;98519.28;1783811;80;21413;-65
2021/06/17 08:04:45;;;;;;;12.25;3.77;;;;;;;22.01;57.94;98523.98;1783610;79;21100;-62
2021/06/17 08:07:13;;;;;;;6.85;4.00;;;;;;;22.10;57.79;98531.42;1785950;79;20975;-66
2021/06/17 08:09:40;;;;;;;11.20;3.98;;;;;;;22.16;57.09;98532.75;1789721;79;20986;-65
2021/06/17 08:12:09;;;;;;;10.38;4.20;;;;;;;22.20;56.90;98529.53;1789549;79;20924;-62
2021/06/17 08:14:37;;;;;;;9.53;4.15;;;;;;;22.28;57.21;98532.66;1789578;79;20935;-66
2021/06/17 08:17:05;;;;;;;11.18;3.85;;;;;;;22.40;56.86;98529.80;1789703;80;21380;-66
2021/06/17 08:19:33;;;;;;;10.13;3.85;;;;;;;22.47;56.35;98536.22;1789719;80;21502;-64
2021/06/17 08:22:04;;;;;;;15.18;4.47;;;;;;;22.54;56.54;98532.86;1789385;79;20966;-66
2021/06/17 08:24:39;;;;;;;9.23;3.47;;;;;;;22.61;55.89;98537.14;1789811;79;20895;-67
2021/06/17 08:27:07;;;;;;;8.65;4.08;;;;;;;22.67;55.65;98531.65;1789483;80;20845;-66
2021/06/17 08:29:34;;;;;;;15.20;4.05;;;;;;;22.75;55.03;98533.37;1789454;80;21169;-68
2021/06/17 08:32:03;;;;;;;13.00;4.17;;;;;;;22.80;55.03;98540.52;1789404;80;21428;-64
2021/06/17 08:34:30;;;;;;;14.10;3.65;;;;;;;22.85;54.86;98542.94;1789689;79;20948;-64
2021/06/17 08:36:56;;;;;;;13.75;3.80;;;;;;;22.92;54.62;98545.83;1789655;79;20896;-63
2021/06/17 08:39:23;;;;;;;9.58;3.30;;;;;;;22.93;54.95;98544.13;1789493;79;20892;-64
2021/06/17 08:41:50;;;;;;;9.05;3.27;;;;;;;23.01;55.17;98542.34;1789513;79;21889;-64
2021/06/17 08:44:18;;;;;;;10.70;3.50;;;;;;;23.07;53.63;98540.33;1789469;79;20861;-69
2021/06/17 08:49:35;;;;;;;16.35;3.35;;;;;;;23.22;54.06;98537.89;1771323;80;21027;-64
2021/06/17 08:52:01;;;;;;;6.17;3.65;;;;;;;23.27;53.68;98526.67;1771777;81;20991;-67
2021/06/17 08:54:33;;;;;;;7.65;3.27;;;;;;;23.33;52.88;98530.69;1771750;80;21113;-66
2021/06/17 08:56:57;;;;;;;4.92;2.98;;;;;;;23.41;53.17;98525.61;1770300;81;21023;-67
2021/06/17 08:59:38;;;;;;;9.60;2.92;;;;;;;23.54;52.85;98529.75;1771149;81;21641;-68
2021/06/17 09:02:05;;;;;;;7.90;3.17;;;;;;;23.66;52.72;98535.06;1771612;81;20925;-67
2021/06/17 09:04:32;;;;;;;6.67;3.00;;;;;;;23.70;51.67;98540.81;1771719;81;21009;-64
2021/06/17 09:07:12;;;;;;;8.80;2.95;;;;;;;23.70;50.88;98542.75;1771626;81;21026;-63
2021/06/17 09:09:45;;;;;;;7.08;3.15;;;;;;;23.63;50.42;98539.88;1771618;81;21076;-66
2021/06/17 09:12:15;;;;;;;8.08;2.95;;;;;;;23.55;51.33;98543.66;1770890;81;20965;-64
2021/06/17 09:14:52;;;;;;;6.50;3.00;;;;;;;23.60;51.32;98543.36;1771923;81;20976;-61
2021/06/17 09:17:19;;;;;;;4.37;2.72;;;;;;;23.74;52.07;98540.89;1771511;80;21047;-66
2021/06/17 09:19:49;;;;;;;8.03;3.05;;;;;;;23.94;51.90;98545.14;1771666;81;21176;-64
2021/06/17 09:22:21;;;;;;;6.95;2.60;;;;;;;24.10;51.51;98547.20;1771435;81;20917;-61
2021/06/17 09:24:50;;;;;;;4.37;2.30;;;;;;;24.28;49.42;98544.17;1771953;81;20901;-63
2021/06/17 09:27:26;;;;;;;6.28;2.40;;;;;;;24.46;50.03;98543.90;1771682;81;20920;-61
2021/06/17 09:29:56;;;;;;;5.20;2.10;;;;;;;24.68;49.48;98542.84;1771920;80;21000;-65
2021/06/17 09:32:29;;;;;;;5.83;2.33;;;;;;;24.87;49.55;98546.87;1771624;81;21092;-64
2021/06/17 09:34:57;;;;;;;7.20;2.25;;;;;;;25.04;49.09;98543.55;1771888;81;21396;-65
2021/06/17 09:37:30;;;;;;;3.87;2.20;;;;;;;25.17;47.42;98543.55;1771588;81;20905;-66
2021/06/17 09:39:57;;;;;;;4.05;2.20;;;;;;;25.26;47.04;98535.82;1771707;81;20905;-65
2021/06/17 09:42:31;;;;;;;5.40;2.30;;;;;;;25.27;46.03;98531.93;1771787;81;20893;-67
2021/06/17 09:45:00;;;;;;;3.87;1.98;;;;;;;25.26;46.89;98532.28;1771706;80;21392;-66
2021/06/17 09:47:33;;;;;;;7.78;2.25;;;;;;;25.35;47.57;98536.31;1771741;80;21012;-65
2021/06/17 09:50:05;;;;;;;3.80;2.12;;;;;;;25.49;46.69;98535.71;1771693;81;20992;-61
2021/06/17 09:52:40;;;;;;;4.08;2.02;;;;;;;25.61;46.68;98540.94;1748326;81;21598;-63
2021/06/17 09:55:08;;;;;;;4.20;2.45;;;;;;;25.74;47.34;98533.44;1772011;81;21436;-62
2021/06/17 09:57:40;;;;;;;3.33;1.98;;;;;;;25.97;46.13;98531.11;1771853;80;21898;-66
2021/06/17 10:00:13;;;;;;;4.70;2.58;;;;;;;25.97;46.13;98531.11;1771464;81;21342;-64
2021/06/17 10:02:40;;;;;;;7.37;2.30;;;;;;;26.06;45.02;98535.12;1772043;80;20979;-66
2021/06/17 10:05:19;;;;;;;6.37;2.40;;;;;;;26.06;45.28;98530.20;1772111;81;20981;-63
2021/06/17 10:07:47;;;;;;;3.22;2.20;;;;;;;26.10;45.71;98528.27;1771852;80;20964;-64
2021/06/17 10:10:20;;;;;;;6.25;2.65;;;;;;;26.19;44.22;98527.42;1771788;80;20992;-64
2021/06/17 10:12:47;;;;;;;3.37;2.10;;;;;;;26.24;44.52;98531.96;1771860;81;21416;-63
2021/06/17 10:15:15;;;;;;;3.27;2.05;;;;;;;26.32;44.42;98534.19;1771080;81;20944;-64
2021/06/17 10:17:42;;;;;;;4.25;2.00;;;;;;;26.37;43.38;98531.88;1770540;81;20979;-66
2021/06/17 10:20:11;;;;;;;5.80;2.00;;;;;;;26.44;42.96;98530.56;1770370;81;21118;-63
2021/06/17 10:22:38;;;;;;;3.70;1.90;;;;;;;26.52;43.88;98526.48;1770736;81;21122;-67
2021/06/17 10:25:09;;;;;;;3.67;2.00;;;;;;;26.60;43.29;98526.14;1770355;81;20991;-67
2021/06/17 10:27:43;;;;;;;4.05;1.98;;;;;;;26.63;42.55;98532.25;1770831;81;20991;-66
2021/06/17 10:30:11;;;;;;;4.53;1.90;;;;;;;26.69;42.86;98526.59;1771316;81;21508;-62
2021/06/17 10:32:46;;;;;;;4.55;1.80;;;;;;;26.69;42.86;98526.59;1771950;81;21464;-65
2021/06/17 10:35:30;;;;;;;6.08;2.05;;;;;;;26.76;43.59;98525.87;1771874;81;21168;-62
2021/06/17 10:38:03;;;;;;;3.72;2.00;;;;;;;26.81;42.93;98523.55;1771833;81;20901;-63
2021/06/17 10:40:30;;;;;;;4.83;2.10;;;;;;;26.87;42.68;98530.28;1771143;81;21079;-64
2021/06/17 10:42:58;;;;;;;5.78;2.20;;;;;;;26.74;41.89;98526.81;1772326;80;21392;-64
2021/06/17 10:45:41;;;;;;;4.70;2.20;;;;;;;26.47;41.84;98526.27;1771912;81;21004;-65
2021/06/17 10:48:12;;;;;;;4.17;1.90;;;;;;;26.27;42.18;98526.30;1766030;81;22057;-63
2021/06/17 10:51:03;;;;;;;3.90;2.30;;;;;;;26.22;42.27;98523.90;1741406;82;21011;-64
2021/06/17 10:53:44;;;;;;;4.30;1.72;;;;;;;26.45;43.45;98523.09;1740305;82;21071;-67
2021/06/17 10:56:22;;;;;;;4.25;2.12;;;;;;;26.45;43.45;98523.09;1740255;82;21513;-65
2021/06/17 10:58:52;;;;;;;5.37;2.00;;;;;;;26.53;42.30;98526.09;1737250;82;21046;-63
2021/06/17 11:01:44;;;;;;;3.87;1.90;;;;;;;26.57;43.74;98529.65;1740347;82;21121;-64
2021/06/17 11:04:20;;;;;;;4.10;1.90;;;;;;;26.67;43.70;98520.69;1740208;82;21066;-67
2021/06/17 11:06:57;;;;;;;;;;;;;;;26.79;42.26;98521.78;1743490;82;20935;-65
2021/06/17 11:09:45;;;;;;;3.92;2.05;;;;;;;26.88;44.16;98515.92;1741461;81;20174;-67
2021/06/17 11:12:23;;;;;;;5.55;2.08;;;;;;;27.01;43.50;98520.73;1741558;82;21509;-68
2021/06/17 11:14:54;;;;;;;3.83;1.87;;;;;;;26.95;41.98;98520.88;1741207;82;21174;-69
2021/06/17 11:17:33;;;;;;;5.47;1.82;;;;;;;26.73;42.22;98520.55;1741371;82;21030;-66
2021/06/17 11:20:08;;;;;;;2.77;1.90;;;;;;;26.63;42.79;98517.73;1741304;82;20951;-67
2021/06/17 11:22:48;;;;;;;3.92;1.80;;;;;;;26.67;44.00;98517.95;1742268;82;20996;-67
2021/06/17 11:25:22;;;;;;;4.37;1.70;;;;;;;26.85;43.95;98518.86;1742061;82;21006;-62
2021/06/17 11:28:08;;;;;;;3.35;1.80;;;;;;;26.94;42.23;98522.65;1741755;82;20893;-61
2021/06/17 11:30:53;;;;;;;3.60;2.08;;;;;;;26.82;41.63;98519.64;1742043;82;20881;-70
2021/06/17 11:33:21;;;;;;;6.62;2.33;;;;;;;26.79;41.82;98522.36;1741141;82;21004;-63
2021/06/17 11:35:58;;;;;;;4.55;1.72;;;;;;;26.84;42.35;98514.55;1741846;82;20897;-64
2021/06/17 11:38:29;;;;;;;2.30;1.60;;;;;;;27.07;41.65;98504.05;1742066;82;20904;-66
2021/06/17 11:40:56;;;;;;;3.10;2.00;;;;;;;27.08;41.67;98503.47;1741807;82;21037;-64
2021/06/17 11:43:26;;;;;;;4.17;1.87;;;;;;;26.97;41.43;98510.28;1741775;82;20956;-62
2021/06/17 11:45:53;;;;;;;4.17;1.72;;;;;;;26.83;41.49;98510.21;1741832;82;20936;-66
2021/06/17 11:48:23;;;;;;;5.65;1.72;;;;;;;26.89;41.40;98508.69;1743207;81;20951;-64
2021/06/17 11:50:51;;;;;;;2.65;1.80;;;;;;;27.08;40.87;98508.39;1755437;81;20987;-66
2021/06/17 11:53:24;;;;;;;5.30;1.82;;;;;;;27.35;40.95;98499.23;1755435;81;21112;-65
2021/06/17 11:55:54;;;;;;;4.67;2.20;;;;;;;27.59;39.72;98499.13;1755157;81;20939;-64
2021/06/17 11:58:28;;;;;;;4.17;1.87;;;;;;;27.79;38.38;98500.36;1755441;81;20950;-63
2021/06/17 12:00:57;;;;;;;4.80;2.02;;;;;;;27.93;39.53;98505.88;1753632;81;21003;-66
2021/06/17 12:03:26;;;;;;;3.83;2.55;;;;;;;28.17;38.29;98496.84;1726659;81;20931;-60
2021/06/17 12:06:09;;;;;;;3.47;2.10;;;;;;;28.40;39.38;98490.36;1747864;82;21844;-62
2021/06/17 12:08:37;;;;;;;6.53;2.47;;;;;;;28.68;38.58;98490.13;1746104;80;21386;-61
2021/06/17 12:11:24;;;;;;;5.10;1.98;;;;;;;28.94;39.03;98491.03;1748835;81;20967;-64
2021/06/17 12:13:51;;;;;;;4.97;2.17;;;;;;;29.20;37.86;98491.94;1747803;81;21017;-66
2021/06/17 12:16:20;;;;;;;4.03;2.00;;;;;;;29.48;38.32;98495.93;1746359;82;21122;-66
2021/06/17 12:18:49;;;;;;;3.85;1.87;;;;;;;29.48;37.23;98495.93;1747933;82;21084;-64
2021/06/17 12:21:28;;;;;;;2.33;1.50;;;;;;;29.25;36.36;98497.05;1748186;81;20876;-65
2021/06/17 12:23:59;;;;;;;3.62;1.55;;;;;;;28.83;36.14;98507.59;1753781;81;21002;-63
2021/06/17 12:26:34;;;;;;;3.08;1.52;;;;;;;28.37;36.65;98502.16;1755121;81;21098;-66
2021/06/17 12:29:14;;;;;;;2.30;1.70;;;;;;;28.15;37.67;98500.59;1754754;81;20958;-65
2021/06/17 12:31:47;;;;;;;4.58;1.98;;;;;;;28.31;37.78;98499.59;1755140;81;21688;-63
2021/06/17 12:34:19;;;;;;;2.80;1.70;;;;;;;28.68;37.26;98495.05;1731220;81;20872;-65
2021/06/17 12:37:06;;;;;;;5.50;1.55;;;;;;;29.09;37.85;98493.91;1754840;81;20977;-65
2021/06/17 12:39:40;;;;;;;3.05;1.60;;;;;;;29.52;36.45;98485.65;1750980;81;20979;-65
2021/06/17 12:42:15;;;;;;;3.90;1.30;;;;;;;29.99;35.65;98486.13;1727343;80;20928;-63
2021/06/17 12:44:45;;;;;;;4.47;1.60;;;;;;;30.34;34.71;98481.71;1731886;81;21474;-68
2021/06/17 12:47:19;;;;;;;2.37;1.72;;;;;;;30.46;34.60;98486.73;1733897;82;21004;-65
2021/06/17 12:52:37;;;;;;;5.62;1.55;;;;;;;29.86;34.97;98489.20;1733728;82;21161;-66
2021/06/17 12:55:06;;;;;;;5.40;1.80;;;;;;;29.21;34.87;98494.88;1748490;82;20881;-66
2021/06/17 12:57:34;;;;;;;9.18;1.70;;;;;;;28.76;35.25;98494.45;1747716;82;21115;-68
2021/06/17 13:00:20;;;;;;;2.08;1.60;;;;;;;28.71;35.30;98493.47;1748837;82;20889;-66
2021/06/17 13:02:52;;;;;;;6.08;1.60;;;;;;;28.92;35.71;98497.54;1749143;81;21015;-68
2021/06/17 13:05:25;;;;;;;3.30;1.75;;;;;;;29.34;35.85;98489.11;1748909;81;20976;-70
2021/06/17 13:08:08;;;;;;;5.65;1.70;;;;;;;29.68;34.97;98484.56;1748797;82;20916;-68
2021/06/17 13:10:49;;;;;;;3.95;1.75;;;;;;;30.00;35.50;98482.19;1748733;81;21128;-69
2021/06/17 13:13:25;;;;;;;2.40;1.50;;;;;;;30.26;34.12;98482.95;1748776;82;21018;-69
2021/06/17 13:15:56;;;;;;;2.47;1.70;;;;;;;30.41;33.71;98486.58;1739905;82;21368;-67
2021/06/17 13:18:26;;;;;;;3.67;1.55;;;;;;;30.56;32.91;98483.08;1748438;81;21404;-65
2021/06/17 13:21:02;;;;;;;2.90;1.50;;;;;;;30.52;33.95;98478.20;1749148;82;21495;-65
2021/06/17 13:23:34;;;;;;;2.65;1.37;;;;;;;30.73;34.31;98487.64;1748939;82;21140;-66
2021/06/17 13:26:05;;;;;;;3.27;1.50;;;;;;;30.99;33.79;98473.16;1748916;82;20853;-65
2021/06/17 13:28:50;;;;;;;4.58;1.70;;;;;;;31.27;32.77;98480.89;1748926;81;20992;-66
2021/06/17 13:31:29;;;;;;;3.85;1.47;;;;;;;31.47;32.99;98474.90;1748907;81;21388;-68
2021/06/17 13:34:04;;;;;;;4.15;1.70;;;;;;;31.67;32.59;98481.34;1748992;81;21463;-67
2021/06/17 13:36:34;;;;;;;3.65;1.80;;;;;;;31.91;31.99;98478.80;1748948;82;21384;-65
2021/06/17 13:39:04;;;;;;;5.28;1.50;;;;;;;32.17;31.25;98478.00;1748800;82;20884;-66
2021/06/17 13:41:34;;;;;;;3.00;1.77;;;;;;;32.26;30.52;98476.85;1766333;80;20935;-67
2021/06/17 13:44:01;;;;;;;4.42;1.55;;;;;;;32.27;30.51;98474.84;1752718;80;21423;-66
2021/06/17 13:46:31;;;;;;;3.90;1.25;;;;;;;32.30;30.34;98481.72;1752525;80;20975;-67
2021/06/17 13:49:01;;;;;;;3.20;1.60;;;;;;;32.25;30.42;98486.95;1772131;80;21101;-66
2021/06/17 13:51:32;;;;;;;2.17;1.27;;;;;;;32.18;30.79;98488.46;1766902;80;20963;-66
2021/06/17 13:54:00;;;;;;;2.67;1.30;;;;;;;32.13;30.57;98492.50;1754044;80;20983;-68
2021/06/17 13:56:27;;;;;;;2.05;1.30;;;;;;;32.04;30.45;98483.16;1760009;80;21020;-66
2021/06/17 13:58:54;;;;;;;4.50;1.32;;;;;;;32.16;30.47;98479.20;1758095;81;20877;-67
2021/06/17 14:01:21;;;;;;;3.33;1.40;;;;;;;32.46;30.99;98479.65;1772696;80;21115;-68
2021/06/17 14:03:49;;;;;;;3.27;1.40;;;;;;;32.77;29.91;98481.67;1766929;79;21009;-66
2021/06/17 14:06:17;;;;;;;3.60;1.30;;;;;;;33.03;29.37;98471.08;1783929;80;20995;-68
2021/06/17 14:08:46;;;;;;;9.00;1.62;;;;;;;33.26;29.23;98476.53;1789456;80;21473;-67
2021/06/17 14:11:12;;;;;;;2.45;1.27;;;;;;;33.36;28.63;98474.73;1788985;80;21002;-66
2021/06/17 14:13:39;;;;;;;3.62;1.52;;;;;;;33.34;28.11;98479.94;1789803;80;21105;-66
2021/06/17 14:16:07;;;;;;;3.65;1.25;;;;;;;33.35;27.79;98483.66;1789833;80;20919;-67
2021/06/17 14:18:34;;;;;;;4.30;1.30;;;;;;;33.36;27.75;98485.23;1789440;80;21168;-70
2021/06/17 14:21:02;;;;;;;3.27;1.45;;;;;;;33.39;28.29;98477.45;1788870;80;21076;-68
2021/06/17 14:23:28;;;;;;;3.20;1.50;;;;;;;33.57;28.12;98479.84;1788836;80;20911;-68
2021/06/17 14:25:55;;;;;;;5.17;1.27;;;;;;;33.69;27.11;98474.40;1789923;80;21101;-65
2021/06/17 14:28:22;;;;;;;2.45;1.35;;;;;;;33.77;26.87;98474.23;1790051;80;21371;-68
2021/06/17 14:30:49;;;;;;;2.20;1.30;;;;;;;33.64;26.92;98469.36;1790010;80;20899;-68
2021/06/17 14:33:16;;;;;;;3.27;1.17;;;;;;;33.45;26.62;98471.55;1789888;80;20974;-68
2021/06/17 14:35:43;;;;;;;5.10;1.45;;;;;;;33.38;27.39;98464.77;1790173;80;21367;-67
2021/06/17 14:38:10;;;;;;;3.50;1.30;;;;;;;33.51;27.66;98468.45;1789979;80;21789;-66
2021/06/17 14:40:37;;;;;;;4.62;1.60;;;;;;;33.72;27.78;98465.81;1789759;80;20939;-66
2021/06/17 14:43:04;;;;;;;2.67;1.30;;;;;;;33.87;27.80;98464.23;1789910;80;20938;-68
2021/06/17 14:45:31;;;;;;;4.12;1.37;;;;;;;33.99;27.65;98476.69;1789890;80;20931;-66
2021/06/17 14:47:58;;;;;;;2.33;1.00;;;;;;;34.07;27.37;98471.92;1789990;80;20978;-65
2021/06/17 14:50:26;;;;;;;2.58;1.30;;;;;;;34.18;25.54;98474.42;1789996;80;21751;-68
2021/06/17 14:52:53;;;;;;;2.85;1.22;;;;;;;34.16;25.66;98467.92;1789844;80;20863;-68
2021/06/17 14:55:20;;;;;;;2.27;1.00;;;;;;;34.20;26.28;98469.23;1789922;80;20863;-67
2021/06/17 14:57:47;;;;;;;2.83;1.25;;;;;;;34.09;26.01;98474.26;1789899;80;20891;-69
2021/06/17 15:00:17;;;;;;;2.70;1.40;;;;;;;34.13;25.72;98471.56;1789810;80;20973;-69
2021/06/17 15:02:43;;;;;;;2.30;1.12;;;;;;;34.11;25.66;98469.05;1788007;80;21817;-69
2021/06/17 15:05:11;;;;;;;5.33;1.40;;;;;;;34.19;25.85;98460.71;1784293;80;20899;-68
2021/06/17 15:07:37;;;;;;;3.60;1.20;;;;;;;34.20;25.42;98470.63;1784501;80;20958;-68
2021/06/17 15:10:06;;;;;;;2.27;1.10;;;;;;;34.14;25.36;98467.58;1784310;80;20950;-69
2021/06/17 15:12:33;;;;;;;2.90;1.27;;;;;;;34.15;25.91;98462.81;1784342;80;21362;-72
2021/06/17 15:15:02;;;;;;;2.58;1.40;;;;;;;34.12;26.34;98470.62;1784560;80;21402;-70
2021/06/17 15:17:28;;;;;;;3.10;1.27;;;;;;;34.19;25.83;98469.05;1784282;80;20954;-69
2021/06/17 15:19:55;;;;;;;2.83;1.52;;;;;;;34.15;26.16;98465.59;1784320;80;20966;-70
2021/06/17 15:22:22;;;;;;;2.60;1.20;;;;;;;34.14;25.91;98466.79;1784326;80;20883;-69
2021/06/17 15:24:49;;;;;;;3.85;1.30;;;;;;;33.67;26.14;98464.33;1784444;80;20847;-70
2021/06/17 15:27:16;;;;;;;2.02;1.12;;;;;;;33.25;25.88;98468.04;1784305;80;21102;-69
2021/06/17 15:29:43;;;;;;;4.87;1.52;;;;;;;32.80;26.32;98464.19;1784271;80;20844;-71
2021/06/17 15:32:10;;;;;;;4.20;1.45;;;;;;;32.63;26.61;98473.62;1784329;80;20891;-69
2021/06/17 15:34:37;;;;;;;2.75;1.40;;;;;;;32.59;27.47;98465.98;1784425;80;21402;-69
2021/06/17 15:37:04;;;;;;;3.40;1.42;;;;;;;32.52;27.23;98474.44;1784353;80;20871;-74
2021/06/17 15:39:31;;;;;;;2.55;1.22;;;;;;;32.32;27.58;98470.20;1784415;80;21108;-69
2021/06/17 15:41:57;;;;;;;5.90;1.32;;;;;;;32.11;28.02;98474.13;1784142;80;21429;-70
2021/06/17 15:44:24;;;;;;;5.05;1.60;;;;;;;31.89;28.82;98479.83;1784305;80;20828;-70
2021/06/17 15:46:51;;;;;;;2.90;1.30;;;;;;;31.56;29.33;98486.27;1756141;80;20986;-69
2021/06/17 15:49:18;;;;;;;3.12;1.25;;;;;;;31.14;29.20;98485.42;1784305;80;20895;-70
